createdAt,value
2019-05-26T00:02:37.807Z,3.40
2019-05-26T00:12:48.292Z,3.07
2019-05-26T00:22:01.363Z,5.20
2019-05-26T00:31:56.129Z,3.30
2019-05-26T00:41:57.400Z,4.57
2019-05-26T00:44:27.308Z,5.80
2019-05-26T00:47:00.354Z,3.77
2019-05-26T00:53:01.255Z,3.90
2019-05-26T00:55:32.947Z,4.40
2019-05-26T01:05:08.884Z,3.87
2019-05-26T01:08:22.923Z,3.50
2019-05-26T01:11:28.719Z,3.70
2019-05-26T01:14:00.321Z,3.43
2019-05-26T01:17:39.273Z,3.20
2019-05-26T01:20:11.955Z,4.00
2019-05-26T01:26:10.927Z,4.47
2019-05-26T01:28:40.867Z,3.83
2019-05-26T01:31:12.674Z,4.20
2019-05-26T01:37:10.951Z,4.30
2019-05-26T01:43:12.873Z,4.83
2019-05-26T01:46:06.295Z,3.70
2019-05-26T01:48:40.332Z,3.60
2019-05-26T01:52:15.594Z,4.33
2019-05-26T01:55:01.468Z,3.50
2019-05-26T02:01:12.033Z,4.03
2019-05-26T02:07:13.346Z,4.00
2019-05-26T02:09:43.065Z,3.80
2019-05-26T02:13:09.407Z,3.77
2019-05-26T02:15:39.191Z,3.77
2019-05-26T02:18:10.961Z,4.43
2019-05-26T02:24:26.187Z,4.00
2019-05-26T02:26:56.059Z,3.67
2019-05-26T02:29:27.938Z,4.10
2019-05-26T02:32:51.240Z,6.67
2019-05-26T02:35:24.977Z,4.13
2019-05-26T02:38:07.050Z,3.50
2019-05-26T02:40:39.739Z,3.93
2019-05-26T02:43:46.820Z,3.90
2019-05-26T02:46:34.837Z,4.07
2019-05-26T02:49:04.910Z,5.00
2019-05-26T02:52:17.009Z,4.60
2019-05-26T02:58:15.482Z,4.53
2019-05-26T03:04:58.744Z,4.73
2019-05-26T03:08:33.452Z,4.53
2019-05-26T03:11:03.514Z,4.07
2019-05-26T03:13:35.020Z,4.40
2019-05-26T03:19:39.865Z,4.23
2019-05-26T03:22:22.136Z,4.87
2019-05-26T03:28:22.141Z,4.10
2019-05-26T03:30:54.947Z,4.73
2019-05-26T03:33:48.829Z,4.60
2019-05-26T03:39:50.312Z,4.00
2019-05-26T03:49:26.401Z,7.63
2019-05-26T03:52:22.687Z,4.23
2019-05-26T03:54:52.666Z,4.90
2019-05-26T03:58:07.137Z,4.77
2019-05-26T04:04:23.207Z,6.43
2019-05-26T04:10:08.284Z,5.27
2019-05-26T04:13:21.560Z,4.53
2019-05-26T04:16:34.842Z,4.43
2019-05-26T04:19:27.637Z,4.50
2019-05-26T04:33:08.905Z,5.07
2019-05-26T04:40:24.921Z,5.53
2019-05-26T04:43:47.193Z,5.43
2019-05-26T04:50:30.159Z,7.47
2019-05-26T05:00:28.405Z,5.47
2019-05-26T05:03:30.808Z,5.63
2019-05-26T05:07:14.645Z,6.00
2019-05-26T05:13:56.129Z,6.10
2019-05-26T05:20:40.691Z,5.77
2019-05-26T05:31:08.715Z,6.90
2019-05-26T05:34:33.447Z,5.63
2019-05-26T05:41:29.702Z,5.30
2019-05-26T05:51:20.097Z,5.70
2019-05-26T05:57:51.882Z,6.03
2019-05-26T06:01:28.400Z,6.30
2019-05-26T06:04:58.192Z,6.10
2019-05-26T06:11:36.978Z,6.27
2019-05-26T06:19:10.145Z,6.73
2019-05-26T06:33:04.232Z,7.60
2019-05-26T06:39:51.776Z,7.10
2019-05-26T06:44:52.040Z,7.07
2019-05-26T06:52:39.334Z,7.33
2019-05-26T06:59:54.738Z,6.93
2019-05-26T07:13:36.982Z,6.47
2019-05-26T07:16:54.576Z,6.20
2019-05-26T07:20:08.660Z,6.13
2019-05-26T07:26:39.716Z,5.80
2019-05-26T07:40:22.400Z,7.60
2019-05-26T07:59:42.508Z,5.73
2019-05-26T08:02:23.223Z,6.23
2019-05-26T08:05:49.700Z,5.20
2019-05-26T08:25:39.501Z,5.33
2019-05-26T08:28:30.010Z,5.77
2019-05-26T08:34:40.581Z,5.40
2019-05-26T08:37:10.719Z,4.97
2019-05-26T08:39:48.459Z,5.50
2019-05-26T08:42:27.025Z,5.03
2019-05-26T08:44:56.883Z,4.70
2019-05-26T08:47:26.767Z,5.20
2019-05-26T08:49:56.751Z,5.13
2019-05-26T08:53:21.810Z,5.67
2019-05-26T08:59:41.256Z,5.63
2019-05-26T09:02:13.043Z,5.07
2019-05-26T09:04:48.407Z,5.37
2019-05-26T09:07:21.690Z,5.50
2019-05-26T09:13:45.262Z,5.63
2019-05-26T09:16:33.716Z,6.53
2019-05-26T09:19:06.259Z,4.40
2019-05-26T09:21:42.097Z,4.70
2019-05-26T09:24:29.928Z,4.50
2019-05-26T09:27:01.700Z,4.47
2019-05-26T09:33:04.378Z,5.10
2019-05-26T09:35:35.823Z,4.70
2019-05-26T09:38:25.740Z,4.90
2019-05-26T09:40:58.170Z,5.70
2019-05-26T09:50:12.100Z,4.50
2019-05-26T09:52:42.039Z,4.33
2019-05-26T09:58:40.778Z,4.60
2019-05-26T10:01:13.690Z,4.70
2019-05-26T10:07:16.051Z,4.20
2019-05-26T10:09:48.913Z,4.27
2019-05-26T10:12:20.473Z,4.60
2019-05-26T10:22:04.002Z,4.07
2019-05-26T10:28:04.139Z,4.30
2019-05-26T10:30:37.996Z,4.43
2019-05-26T10:36:58.387Z,4.43
2019-05-26T10:39:34.038Z,3.87
2019-05-26T10:42:35.123Z,3.67
2019-05-26T10:45:34.317Z,3.87
2019-05-26T10:48:23.667Z,4.13
2019-05-26T10:51:33.671Z,4.07
2019-05-26T10:54:29.778Z,3.67
2019-05-26T10:57:33.651Z,3.83
2019-05-26T11:04:31.416Z,4.27
2019-05-26T11:07:21.953Z,4.57
2019-05-26T11:14:02.283Z,4.43
2019-05-26T11:23:23.171Z,5.37
2019-05-26T11:26:31.935Z,4.17
2019-05-26T11:32:35.147Z,3.70
2019-05-26T11:38:36.651Z,3.73
2019-05-26T11:41:15.634Z,3.97
2019-05-26T11:43:51.370Z,3.53
2019-05-26T11:49:27.057Z,4.00
2019-05-26T11:52:00.421Z,4.20
2019-05-26T11:54:34.807Z,3.67
2019-05-26T12:00:35.155Z,3.50
2019-05-26T12:03:53.049Z,3.63
2019-05-26T12:06:25.114Z,3.60
2019-05-26T12:08:54.907Z,3.87
2019-05-26T12:11:41.942Z,3.27
2019-05-26T12:15:06.578Z,3.23
2019-05-26T12:17:53.377Z,3.23
2019-05-26T12:20:32.801Z,3.50
2019-05-26T12:23:18.575Z,3.00
2019-05-26T12:26:16.395Z,3.53
2019-05-26T12:29:03.976Z,3.03
2019-05-26T12:32:13.799Z,3.90
2019-05-26T12:34:55.310Z,3.53
2019-05-26T12:37:48.556Z,3.17
2019-05-26T12:40:55.189Z,3.33
2019-05-26T12:43:53.219Z,3.27
2019-05-26T12:46:35.206Z,2.93
2019-05-26T12:49:35.498Z,3.13
2019-05-26T12:52:56.337Z,3.07
2019-05-26T12:56:26.624Z,3.20
2019-05-26T12:59:40.230Z,3.57
2019-05-26T13:02:41.109Z,2.73
2019-05-26T13:05:15.478Z,3.03
2019-05-26T13:08:18.862Z,3.47
2019-05-26T13:11:15.910Z,3.90
2019-05-26T13:20:33.890Z,3.10
2019-05-26T13:23:14.417Z,3.00
2019-05-26T13:25:58.957Z,3.87
2019-05-26T13:32:42.422Z,3.20
2019-05-26T13:35:33.468Z,3.40
2019-05-26T13:38:15.150Z,3.13
2019-05-26T13:41:00.169Z,3.17
2019-05-26T13:43:48.110Z,2.90
2019-05-26T13:46:17.930Z,3.07
2019-05-26T13:48:50.217Z,2.80
2019-05-26T13:51:19.992Z,3.20
2019-05-26T13:54:51.767Z,3.97
2019-05-26T13:57:30.168Z,2.90
2019-05-26T14:00:01.732Z,2.87
2019-05-26T14:02:36.938Z,3.47
2019-05-26T14:05:25.794Z,4.30
2019-05-26T14:08:36.299Z,3.93
2019-05-26T14:11:23.319Z,3.30
2019-05-26T14:14:05.373Z,2.90
2019-05-26T14:17:32.326Z,3.13
2019-05-26T14:20:11.850Z,2.80
2019-05-26T14:22:59.181Z,3.10
2019-05-26T14:25:34.515Z,4.77
2019-05-26T14:28:15.717Z,4.03
2019-05-26T14:30:55.376Z,5.57
2019-05-26T14:34:25.085Z,5.50
2019-05-26T14:36:58.425Z,7.10
2019-05-26T14:39:40.182Z,7.80
2019-05-26T14:42:48.343Z,6.97
2019-05-26T14:45:18.199Z,7.20
2019-05-26T14:47:55.817Z,9.43
2019-05-26T14:54:13.203Z,6.37
2019-05-26T14:57:00.226Z,5.47
2019-05-26T15:00:01.631Z,6.53
2019-05-26T15:06:23.410Z,7.10
2019-05-26T15:12:30.272Z,6.50
2019-05-26T15:15:13.878Z,7.30
2019-05-26T15:18:04.610Z,7.40
2019-05-26T15:20:56.188Z,8.30
2019-05-26T15:24:16.301Z,10.97
2019-05-26T15:27:08.101Z,54.53
2019-05-26T15:30:01.521Z,80.87
2019-05-26T15:32:44.459Z,42.47
2019-05-26T15:36:05.217Z,51.07
2019-05-26T15:38:46.515Z,45.50
2019-05-26T15:41:21.035Z,55.07
2019-05-26T15:44:12.875Z,41.63
2019-05-26T15:47:05.792Z,38.93
2019-05-26T15:49:49.868Z,35.43
2019-05-26T15:52:20.634Z,35.10
2019-05-26T15:54:53.599Z,29.13
2019-05-26T15:57:59.921Z,31.90
2019-05-26T16:00:32.207Z,35.00
2019-05-26T16:03:21.986Z,38.33
2019-05-26T16:06:08.856Z,29.87
2019-05-26T16:08:49.080Z,34.07
2019-05-26T16:11:53.547Z,27.30
2019-05-26T16:18:03.521Z,26.60
2019-05-26T16:25:13.216Z,37.17
2019-05-26T16:27:41.641Z,39.10
2019-05-26T16:34:18.186Z,40.40
2019-05-26T16:36:47.775Z,49.13
2019-05-26T16:39:36.040Z,54.00
2019-05-26T16:42:52.267Z,50.90
2019-05-26T16:45:25.448Z,51.03
2019-05-26T16:48:18.390Z,55.20
2019-05-26T16:55:10.279Z,75.07
2019-05-26T17:01:39.874Z,52.73
2019-05-26T17:04:11.093Z,50.60
2019-05-26T17:07:18.301Z,52.63
2019-05-26T17:10:06.462Z,45.60
2019-05-26T17:13:34.103Z,44.50
2019-05-26T17:16:38.274Z,39.97
2019-05-26T17:19:13.166Z,44.63
2019-05-26T17:21:48.218Z,51.63
2019-05-26T17:24:22.551Z,50.90
2019-05-26T17:26:52.691Z,37.50
2019-05-26T17:29:43.884Z,94.03
2019-05-26T17:39:25.835Z,74.93
2019-05-26T17:42:25.563Z,54.63
2019-05-26T17:44:59.041Z,44.07
2019-05-26T17:51:01.515Z,54.77
2019-05-26T17:54:18.394Z,51.80
2019-05-26T17:57:37.303Z,43.43
2019-05-26T18:00:47.343Z,43.63
2019-05-26T18:03:43.590Z,35.50
2019-05-26T18:09:56.558Z,41.93
2019-05-26T18:12:45.523Z,40.43
2019-05-26T18:15:40.561Z,53.67
2019-05-26T18:18:15.634Z,38.20
2019-05-26T18:21:04.342Z,35.13
2019-05-26T18:24:01.966Z,37.83
2019-05-26T18:27:28.074Z,30.73
2019-05-26T18:30:17.677Z,30.90
2019-05-26T18:33:13.263Z,33.10
2019-05-26T18:36:08.076Z,30.63
2019-05-26T18:42:30.411Z,30.80
2019-05-26T18:45:32.797Z,33.03
2019-05-26T18:48:34.681Z,28.57
2019-05-26T18:51:04.727Z,29.33
2019-05-26T18:57:52.555Z,35.40
2019-05-26T19:00:55.184Z,28.80
2019-05-26T19:03:29.996Z,27.70
2019-05-26T19:06:22.274Z,30.00
2019-05-26T19:09:11.221Z,26.37
2019-05-26T19:11:55.949Z,27.97
2019-05-26T19:14:48.156Z,27.13
2019-05-26T19:18:20.063Z,26.50
2019-05-26T19:21:03.395Z,32.17
2019-05-26T19:24:15.491Z,28.50
2019-05-26T19:34:14.110Z,28.93
2019-05-26T19:37:25.557Z,24.60
2019-05-26T19:40:20.548Z,26.13
2019-05-26T19:43:11.769Z,31.40
2019-05-26T19:46:47.175Z,28.57
2019-05-26T19:56:01.363Z,29.10
2019-05-26T20:02:27.232Z,22.53
2019-05-26T20:05:20.100Z,25.13
2019-05-26T20:08:28.939Z,27.13
2019-05-26T20:11:33.853Z,25.30
2019-05-26T20:14:31.412Z,24.93
2019-05-26T20:17:23.368Z,26.43
2019-05-26T20:20:53.475Z,26.03
2019-05-26T20:23:40.358Z,21.93
2019-05-26T20:26:23.212Z,25.00
2019-05-26T20:29:06.964Z,29.80
2019-05-26T20:35:16.181Z,27.40
2019-05-26T20:37:52.179Z,21.70
2019-05-26T20:40:37.257Z,20.70
2019-05-26T20:43:33.177Z,24.27
2019-05-26T20:49:44.381Z,24.47
2019-05-26T21:03:15.599Z,26.63
2019-05-26T21:12:58.991Z,20.60
2019-05-26T21:19:20.838Z,23.87
2019-05-26T21:22:03.731Z,21.40
2019-05-26T21:28:31.964Z,19.20
2019-05-26T21:35:21.027Z,20.80
2019-05-26T21:41:27.801Z,21.33
2019-05-26T21:44:48.114Z,22.07
2019-05-26T21:47:24.524Z,22.23
2019-05-26T21:50:15.901Z,17.13
2019-05-26T21:52:54.292Z,17.70
2019-05-26T21:56:10.842Z,18.43
2019-05-26T21:59:19.512Z,19.83
2019-05-26T22:05:58.099Z,17.70
2019-05-26T22:08:32.090Z,16.80
2019-05-26T22:13:59.930Z,15.63
2019-05-26T22:20:26.394Z,14.70
2019-05-26T22:25:57.227Z,21.30
2019-05-26T22:28:45.284Z,19.60
2019-05-26T22:31:38.682Z,14.30
2019-05-26T22:34:23.689Z,14.97
2019-05-26T22:37:18.006Z,13.67
2019-05-26T22:40:19.326Z,20.33
2019-05-26T22:43:51.452Z,17.40
2019-05-26T22:46:35.972Z,14.50
2019-05-26T22:49:21.156Z,15.10
2019-05-26T22:55:37.099Z,14.60
2019-05-26T22:58:13.773Z,14.27
2019-05-26T23:01:50.799Z,17.80
2019-05-26T23:08:05.622Z,13.53
2019-05-26T23:10:38.344Z,14.37
2019-05-26T23:16:55.242Z,11.37
2019-05-26T23:20:16.302Z,14.83
2019-05-26T23:22:47.402Z,12.00
2019-05-26T23:29:10.855Z,12.90
2019-05-26T23:36:17.939Z,12.47
2019-05-26T23:43:11.363Z,11.27
2019-05-26T23:45:55.295Z,10.73
2019-05-26T23:48:39.227Z,13.87
2019-05-26T23:51:21.538Z,13.50
2019-05-26T23:54:26.318Z,11.03
2019-05-26T23:57:13.740Z,12.33
